Date,TemperatureHighF,TemperatureAvgF,TemperatureLowF,DewpointHighF,DewpointAvgF,DewpointLowF,HumidityHigh,HumidityAvg,HumidityLow,PressureMaxIn,PressureMinIn,WindSpeedMaxMPH,WindSpeedAvgMPH,GustSpeedMaxMPH,PrecipitationSumIn
2014-2-1,61.0,54.7,49.7,45.2,34.5,21.5,79,49,25,29.99,29.79,14,4,22,0.02
2014-2-2,61.7,47.9,30.6,26.2,22.5,20.1,67,39,21,30.15,29.98,8,1,11,0.00
2014-2-3,61.8,46.1,36.3,35.7,24.5,13.8,83,48,17,30.01,29.83,13,3,26,0.04
2014-2-4,58.8,43.4,31.0,35.8,27.5,23.1,86,59,26,30.16,30.01,10,1,13,0.01
2014-2-5,63.0,49.6,34.3,28.7,25.8,23.8,69,42,23,30.14,29.97,9,2,18,0.00
2014-2-6,57.9,46.3,31.9,39.7,27.2,23.6,75,50,29,30.11,30.00,7,1,16,0.02
2014-2-7,66.3,51.2,38.6,39.8,33.5,28.6,85,55,26,30.18,30.04,9,1,15,0.01
2014-2-8,71.5,50.7,34.6,31.6,27.7,17.5,76,47,13,30.27,30.17,8,1,13,0.00
2014-2-9,78.5,55.1,35.6,36.4,30.0,26.4,71,43,18,30.21,30.02,10,2,15,0.00
2014-2-10,78.1,57.0,37.0,32.6,29.4,27.3,70,40,16,30.07,29.87,13,2,25,0.00
2014-2-11,75.0,55.5,36.1,33.0,27.4,23.9,69,38,16,30.10,29.93,10,2,21,0.00
2014-2-12,77.7,54.5,33.0,26.3,22.7,18.3,65,34,11,30.18,30.03,9,2,14,0.00
2014-2-13,82.6,57.8,35.2,25.9,23.6,21.2,59,31,12,30.15,29.97,9,2,16,0.00
2014-2-14,86.0,60.4,37.1,27.9,25.0,22.4,57,31,10,30.11,29.97,7,1,10,0.00
2014-2-15,89.8,62.5,38.5,27.3,23.6,16.8,57,29,7,30.06,29.94,10,2,14,0.00
2014-2-16,85.0,63.0,42.3,27.2,21.6,12.6,48,25,7,30.04,29.94,11,2,17,0.00
2014-2-17,86.9,62.8,42.0,27.4,20.7,13.4,48,24,7,30.08,29.92,7,1,15,0.00
2014-2-18,84.6,61.0,39.4,25.8,20.9,16.1,53,26,8,30.02,29.87,7,1,15,0.00
2014-2-19,77.5,59.5,42.0,26.7,22.0,14.9,46,26,12,29.93,29.78,9,2,13,0.00
2014-2-20,77.5,55.7,36.7,24.7,16.3,6.0,54,26,8,30.09,29.90,14,3,24,0.00
2014-2-21,78.4,55.0,34.9,17.8,11.6,6.5,44,21,7,30.09,29.90,9,2,15,0.00
2014-2-22,79.6,55.5,32.0,18.3,13.3,8.2,48,23,7,30.00,29.87,11,2,16,0.00
2014-2-23,78.2,57.9,40.3,23.3,17.6,12.4,41,23,9,30.05,29.94,4,1,11,0.00
2014-2-24,82.2,61.7,44.7,27.7,24.0,18.8,41,26,13,30.03,29.89,8,1,12,0.00
2014-2-25,77.3,60.3,44.2,34.7,29.1,24.5,50,33,18,30.02,29.92,9,1,14,0.00
2014-2-26,79.2,61.6,42.0,37.3,33.0,30.1,67,38,17,30.03,29.87,8,1,17,0.00
2014-2-27,78.6,61.3,40.9,36.0,32.8,30.1,65,38,19,30.01,29.81,13,2,20,0.00
2014-2-28,83.5,65.5,44.5,37.5,33.3,26.7,65,35,13,29.90,29.79,11,3,30,0.00